Pfugerville's Hourly Summary for Monday, March 13, 2017
Hour Temp
(f)
RH
(%)
Solar Rad.
(MJ/m2)
Rainfall
(in)
Wind
(mph)
3/13/2017 12:00 AM 45 100 0 0 3.13
3/13/2017 1:00 AM 45 100 0 0 4.54
3/13/2017 2:00 AM 46 100 0 0 2.56
3/13/2017 3:00 AM 46 100 0 0 3.54
3/13/2017 4:00 AM 46 100 0 0 2.02
3/13/2017 5:00 AM 46 100 0 0 0.16
3/13/2017 6:00 AM 47 100 0 0 0
3/13/2017 7:00 AM 47 100 0 0 3.26
3/13/2017 8:00 AM 47 100 0 0 6.46
3/13/2017 9:00 AM 47 100 0.08 0 4.43
3/13/2017 10:00 AM 48 100 0.29 0 5.66
3/13/2017 11:00 AM 49 100 0.55 0 7.08
3/13/2017 12:00 PM 53 100 1.58 0 9.67
3/13/2017 1:00 PM 56 99 1.69 0 10.37
3/13/2017 2:00 PM 58 92 2.83 0 9.69
3/13/2017 3:00 PM 61 81 2.7 0 10.97
3/13/2017 4:00 PM 62 76 2.63 0 11.68
3/13/2017 5:00 PM 63 67 1.89 0 11.68
3/13/2017 6:00 PM 64 64 0.81 0 8.79
3/13/2017 7:00 PM 64 64 0.4 0 6.06
3/13/2017 8:00 PM 62 64 0.04 0 1.85
3/13/2017 9:00 PM 58 79 0 0 0.13
3/13/2017 10:00 PM 55 97 0 0 1.05
3/13/2017 11:00 PM 52 99 0 0 1.15
Data Summary 52 90 15.49 0.00 5.25